Time;durP1;ratioP1;P1;durP2;ratioP2;P2;SDS_P1;SDS_P2;PMS_P1;PMS_P2;Temp;Humidity;BMP_temperature;BMP_pressure;BME280_temperature;BME280_humidity;BME280_pressure;Samples;Min_cycle;Max_cycle;Signal;HPM_P1;HPM_P2
2021/11/16 00:00:49;;;;;;;14.00;7.43;;;;;;;6.38;59.07;102020.19;7993714;28;20035;-66
2021/11/16 00:04:40;;;;;;;11.27;7.70;;;;;;;6.42;59.04;102026.16;7995440;28;20042;-66
2021/11/16 00:08:31;;;;;;;13.45;7.47;;;;;;;6.42;58.82;102020.94;8003614;28;20037;-66
2021/11/16 00:12:21;;;;;;;9.95;6.40;;;;;;;6.42;59.07;102026.16;8001084;28;20063;-66
2021/11/16 00:16:12;;;;;;;12.40;7.13;;;;;;;6.42;59.05;102026.16;7999262;28;20147;-66
2021/11/16 00:20:06;;;;;;;13.15;7.65;;;;;;;6.40;58.74;102023.59;7999342;28;20033;-66
2021/11/16 00:23:59;;;;;;;13.85;7.25;;;;;;;6.39;58.98;102021.00;7986150;28;20057;-66
2021/11/16 00:27:50;;;;;;;15.77;8.25;;;;;;;6.36;58.98;102021.13;7989667;28;20025;-66
2021/11/16 00:31:40;;;;;;;13.90;8.30;;;;;;;6.37;58.54;102031.53;7999606;28;20037;-66
2021/11/16 00:35:37;;;;;;;11.73;7.05;;;;;;;6.36;58.79;102021.13;7996448;28;20021;-66
2021/11/16 00:39:28;;;;;;;12.43;7.10;;;;;;;6.35;58.97;102017.66;7996600;28;20045;-67
2021/11/16 00:43:18;;;;;;;12.40;8.10;;;;;;;6.36;59.00;102015.91;7998923;28;20087;-66
2021/11/16 00:47:09;;;;;;;12.90;8.32;;;;;;;6.35;58.99;102006.34;7996930;28;20037;-66
2021/11/16 00:51:04;;;;;;;12.38;7.65;;;;;;;6.35;58.62;101999.38;7983919;28;20417;-66
2021/11/16 00:54:54;;;;;;;16.50;8.13;;;;;;;6.35;58.67;101999.38;7995598;28;20037;-66
2021/11/16 00:58:45;;;;;;;12.82;7.50;;;;;;;6.35;58.81;102004.59;7992463;28;20087;-66
2021/11/16 01:02:36;;;;;;;13.95;7.47;;;;;;;6.36;58.94;101992.41;7995944;28;20033;-66
2021/11/16 01:06:27;;;;;;;10.93;7.35;;;;;;;6.35;59.09;101994.16;7990607;28;20482;-66
2021/11/16 01:10:19;;;;;;;14.38;8.23;;;;;;;6.36;58.78;101989.78;7992369;28;20041;-66
2021/11/16 01:14:10;;;;;;;13.52;7.68;;;;;;;6.36;58.96;101995.88;7991225;28;20033;-66
2021/11/16 01:18:01;;;;;;;13.68;8.68;;;;;;;6.35;58.92;101994.16;7994747;28;20024;-66
2021/11/16 01:21:52;;;;;;;11.20;6.97;;;;;;;6.33;58.85;101995.97;7986610;28;20037;-66
2021/11/16 01:25:44;;;;;;;11.88;6.85;;;;;;;6.33;58.57;101998.59;7984473;28;20392;-66
2021/11/16 01:29:37;;;;;;;12.82;7.70;;;;;;;6.29;58.56;101989.13;7990857;28;20037;-66
2021/11/16 01:33:40;;;;;;;9.85;6.80;;;;;;;6.33;58.72;101995.13;7991429;28;20658;-66
2021/11/16 01:37:31;;;;;;;10.13;6.95;;;;;;;6.33;58.86;101987.28;8000651;28;20486;-66
2021/11/16 01:41:23;;;;;;;9.82;6.03;;;;;;;6.34;58.82;101996.84;7999007;28;20078;-66
2021/11/16 01:45:15;;;;;;;11.35;7.60;;;;;;;6.32;58.53;101986.44;7996775;28;20115;-66
2021/11/16 01:49:08;;;;;;;10.00;6.90;;;;;;;6.30;58.49;101983.03;8000720;28;20095;-66
2021/11/16 01:52:59;;;;;;;11.88;7.18;;;;;;;6.30;58.88;101993.47;7996125;28;20033;-66
2021/11/16 01:56:50;;;;;;;11.38;7.35;;;;;;;6.29;58.70;101986.53;7994766;28;20420;-66
2021/11/16 02:00:44;;;;;;;10.82;7.38;;;;;;;6.29;58.44;101977.84;8001719;28;20033;-66
2021/11/16 02:04:35;;;;;;;10.38;7.75;;;;;;;6.29;58.54;101967.41;7996158;28;20118;-66
2021/11/16 02:08:25;;;;;;;12.68;7.88;;;;;;;6.26;58.55;101970.97;7996152;28;20028;-66
2021/11/16 02:12:16;;;;;;;11.95;7.85;;;;;;;6.27;58.39;101964.84;7997948;28;20048;-66
2021/11/16 02:16:07;;;;;;;11.80;7.78;;;;;;;6.28;58.55;101961.31;7995090;28;20054;-66
2021/11/16 02:19:58;;;;;;;12.52;8.48;;;;;;;6.26;58.60;101954.47;7989048;28;20057;-66
2021/11/16 02:23:49;;;;;;;12.30;7.97;;;;;;;6.27;58.73;101957.00;7985746;28;20033;-66
2021/11/16 02:27:40;;;;;;;14.75;8.25;;;;;;;6.20;58.83;101947.66;7999558;28;20080;-67
2021/11/16 02:31:31;;;;;;;14.27;8.38;;;;;;;6.25;58.59;101947.53;7995429;28;20033;-66
2021/11/16 02:35:27;;;;;;;12.45;8.05;;;;;;;6.23;58.83;101944.94;7988622;28;20169;-66
2021/11/16 02:39:18;;;;;;;13.70;7.95;;;;;;;6.23;58.72;101941.47;7998677;28;20029;-66
2021/11/16 02:43:09;;;;;;;12.23;8.40;;;;;;;6.24;58.59;101936.22;7992063;28;20076;-66
2021/11/16 02:46:59;;;;;;;11.75;7.85;;;;;;;6.24;58.61;101938.84;7998509;28;20029;-66
2021/11/16 02:50:54;;;;;;;17.10;7.88;;;;;;;6.25;58.50;101934.47;7993503;28;20041;-66
2021/11/16 02:54:45;;;;;;;11.07;7.13;;;;;;;6.24;58.53;101936.22;7988238;28;20118;-66
2021/11/16 02:58:36;;;;;;;10.52;7.05;;;;;;;6.25;59.00;101944.91;7991231;28;20040;-66
2021/11/16 03:02:26;;;;;;;9.80;7.22;;;;;;;6.24;58.89;101944.06;7987039;28;20048;-66
2021/11/16 03:06:17;;;;;;;11.60;7.28;;;;;;;6.24;58.54;101941.44;7990532;28;20397;-66
2021/11/16 03:10:09;;;;;;;12.00;7.97;;;;;;;6.21;58.76;101928.50;7987393;28;20041;-66
2021/11/16 03:13:59;;;;;;;10.35;7.25;;;;;;;6.25;59.03;101931.88;7988964;28;20044;-67
2021/11/16 03:17:51;;;;;;;12.40;7.95;;;;;;;6.25;58.63;101926.66;7988390;28;20021;-66
2021/11/16 03:21:54;;;;;;;11.57;7.70;;;;;;;6.24;58.61;101927.53;7986003;28;20041;-67
2021/11/16 03:25:52;;;;;;;11.65;7.82;;;;;;;6.25;58.93;101935.34;7992775;28;20025;-66
2021/11/16 03:29:47;;;;;;;14.15;8.48;;;;;;;6.25;58.85;101935.34;7991569;28;20032;-67
2021/11/16 03:33:39;;;;;;;14.30;7.82;;;;;;;6.26;59.19;101930.97;7989198;28;20484;-67
2021/11/16 03:37:35;;;;;;;13.50;8.48;;;;;;;6.26;58.69;101930.97;7996154;28;20404;-67
2021/11/16 03:41:26;;;;;;;11.98;7.85;;;;;;;6.26;59.21;101924.00;8006608;28;20126;-66
2021/11/16 03:45:22;;;;;;;10.95;7.88;;;;;;;6.24;58.71;101917.97;7998302;28;20570;-66
2021/11/16 03:49:13;;;;;;;11.90;8.15;;;;;;;6.24;58.89;101917.97;8001456;28;20040;-66
2021/11/16 03:53:03;;;;;;;13.02;8.73;;;;;;;6.25;58.92;101918.81;7997681;28;20029;-66
2021/11/16 03:57:00;;;;;;;14.18;8.43;;;;;;;6.24;58.96;101917.09;7992430;28;20031;-66
2021/11/16 04:01:05;;;;;;;12.38;8.02;;;;;;;6.23;59.09;101918.84;7999062;28;20037;-66
2021/11/16 04:04:55;;;;;;;12.23;8.32;;;;;;;6.23;59.33;101925.81;7999061;28;20044;-66
2021/11/16 04:08:46;;;;;;;10.57;6.75;;;;;;;6.22;59.31;101922.41;7996173;28;20065;-66
2021/11/16 04:12:43;;;;;;;12.68;8.38;;;;;;;6.23;58.90;101933.66;7998544;28;20029;-66
2021/11/16 04:16:34;;;;;;;12.27;7.55;;;;;;;6.22;59.17;101921.53;7996584;28;20039;-66
2021/11/16 04:20:36;;;;;;;13.35;8.82;;;;;;;6.19;58.88;101919.84;7995636;28;20029;-66
2021/11/16 04:24:27;;;;;;;13.23;8.35;;;;;;;6.18;58.84;101920.75;7997373;28;20126;-66
2021/11/16 04:28:18;;;;;;;13.32;8.43;;;;;;;6.20;58.97;101916.34;7999961;28;20021;-66
2021/11/16 04:32:08;;;;;;;12.15;8.23;;;;;;;6.19;59.21;101916.38;7995318;28;20043;-66
2021/11/16 04:35:59;;;;;;;10.68;7.18;;;;;;;6.19;59.01;101919.84;7998128;28;20029;-66
2021/11/16 04:39:50;;;;;;;11.40;7.38;;;;;;;6.14;59.29;101910.47;7993384;28;20041;-66
2021/11/16 04:43:40;;;;;;;14.00;7.95;;;;;;;6.19;59.27;101916.38;7991171;28;20041;-66
2021/11/16 04:47:43;;;;;;;14.65;8.70;;;;;;;6.17;59.34;101918.22;7992179;28;20516;-66
2021/11/16 05:03:30;;;;;;;13.48;8.32;;;;;;;6.13;59.11;101921.81;7994180;28;20071;-66
2021/11/16 05:07:23;;;;;;;12.77;8.85;;;;;;;6.11;59.29;101912.28;7985601;28;20034;-66
2021/11/16 05:11:15;;;;;;;20.67;8.77;;;;;;;6.11;59.19;101919.25;7996400;28;20091;-66
2021/11/16 05:15:19;;;;;;;13.27;7.97;;;;;;;6.10;59.40;101917.53;7993083;28;20049;-66
2021/11/16 05:19:09;;;;;;;15.30;8.48;;;;;;;6.08;59.25;101916.75;7991026;28;20041;-66
2021/11/16 05:23:00;;;;;;;14.52;9.05;;;;;;;6.10;59.28;101926.22;7989504;28;20086;-66
2021/11/16 05:26:54;;;;;;;14.82;9.20;;;;;;;6.08;59.44;101924.56;7993648;28;20037;-66
2021/11/16 05:30:45;;;;;;;14.48;9.65;;;;;;;6.09;59.31;101924.53;7996022;28;20036;-66
2021/11/16 05:34:36;;;;;;;20.80;9.63;;;;;;;6.09;59.29;101919.31;7997468;28;20039;-66
2021/11/16 05:38:34;;;;;;;14.45;9.10;;;;;;;6.09;59.76;101921.91;7996237;28;20032;-66
2021/11/16 05:42:24;;;;;;;15.32;9.02;;;;;;;6.04;59.48;101913.38;7996233;28;20062;-66
2021/11/16 05:46:20;;;;;;;14.85;8.93;;;;;;;6.08;59.67;101917.59;7991757;28;20533;-66
2021/11/16 05:50:13;;;;;;;14.57;9.38;;;;;;;6.07;59.70;101918.50;7994794;28;20489;-66
2021/11/16 05:54:05;;;;;;;14.18;9.05;;;;;;;6.07;59.60;101926.31;7997458;28;20091;-66
2021/11/16 05:57:56;;;;;;;14.88;9.40;;;;;;;6.08;59.62;101929.78;7999766;28;20670;-66
2021/11/16 06:01:48;;;;;;;13.10;8.82;;;;;;;6.07;59.69;101926.31;7999801;28;20033;-66
2021/11/16 06:05:39;;;;;;;20.33;9.60;;;;;;;6.05;59.61;101922.06;7990948;28;20041;-66
2021/11/16 06:09:31;;;;;;;16.45;9.48;;;;;;;6.06;59.47;101928.97;7993970;28;20060;-64
2021/11/16 06:13:23;;;;;;;19.83;10.32;;;;;;;6.06;59.78;101927.22;7998017;28;20494;-65
2021/11/16 06:17:13;;;;;;;15.20;9.13;;;;;;;6.05;59.70;101933.34;7996154;28;20033;-65
2021/11/16 06:21:04;;;;;;;15.20;10.13;;;;;;;6.05;59.67;101935.09;7994305;28;20033;-66
2021/11/16 06:24:55;;;;;;;14.95;10.80;;;;;;;6.05;59.74;101932.50;7993072;28;20036;-65
2021/11/16 06:28:46;;;;;;;16.20;10.43;;;;;;;5.99;59.83;101924.84;7997918;28;20044;-66
2021/11/16 06:32:36;;;;;;;16.58;10.07;;;;;;;6.01;59.96;101928.28;8002499;28;20764;-65
2021/11/16 06:36:33;;;;;;;21.60;10.40;;;;;;;6.03;59.66;101934.28;7995283;28;20033;-65
2021/11/16 06:40:23;;;;;;;16.30;9.80;;;;;;;6.02;59.84;101945.59;7994383;28;20052;-66
2021/11/16 06:44:17;;;;;;;17.98;10.65;;;;;;;6.04;59.94;101941.22;7988902;28;20044;-66
2021/11/16 06:48:07;;;;;;;19.73;10.95;;;;;;;6.04;59.66;101949.03;7987835;28;20094;-63
2021/11/16 06:51:58;;;;;;;15.77;10.15;;;;;;;6.03;59.59;101950.78;7993631;28;20044;-64
2021/11/16 06:55:48;;;;;;;17.30;9.98;;;;;;;6.03;60.03;101950.78;7991149;28;20025;-66
2021/11/16 06:59:39;;;;;;;15.48;10.02;;;;;;;6.03;59.88;101947.31;7990746;28;20393;-66
2021/11/16 07:03:30;;;;;;;19.48;10.82;;;;;;;6.02;59.87;101948.22;7990528;28;20029;-65
2021/11/16 07:07:21;;;;;;;17.75;10.60;;;;;;;6.04;59.74;101949.03;7987966;28;20445;-65
2021/11/16 07:11:13;;;;;;;17.67;10.90;;;;;;;6.04;59.75;101954.25;7987335;28;20025;-66
2021/11/16 07:15:05;;;;;;;16.67;10.88;;;;;;;6.04;59.82;101954.25;7992533;28;20091;-66
2021/11/16 07:18:56;;;;;;;18.60;11.43;;;;;;;6.04;59.95;101951.66;8002849;28;20056;-65
2021/11/16 07:22:47;;;;;;;19.30;11.93;;;;;;;6.04;59.74;101962.06;7995632;28;20114;-66
2021/11/16 07:26:41;;;;;;;18.77;11.55;;;;;;;6.04;60.07;101954.25;7989508;28;20636;-65
2021/11/16 07:30:33;;;;;;;17.40;11.82;;;;;;;6.05;59.89;101955.97;7990089;28;20154;-66
2021/11/16 07:34:24;;;;;;;20.15;11.85;;;;;;;6.04;60.07;101957.72;7993645;28;20494;-66
2021/11/16 07:38:15;;;;;;;21.05;12.65;;;;;;;6.04;60.08;101962.94;7984597;28;20028;-66
2021/11/16 07:42:09;;;;;;;18.70;12.00;;;;;;;6.04;60.01;101962.94;7999731;28;20045;-68
2021/11/16 07:46:00;;;;;;;22.67;12.55;;;;;;;6.04;59.72;101967.28;7991874;28;20037;-66
2021/11/16 07:49:51;;;;;;;23.45;12.68;;;;;;;6.04;59.77;101968.16;7993239;28;20048;-66
2021/11/16 07:53:51;;;;;;;20.98;11.80;;;;;;;6.03;59.83;101963.81;7990917;28;20033;-66
2021/11/16 07:57:44;;;;;;;26.15;13.32;;;;;;;6.04;60.06;101960.31;7994070;28;20021;-65
2021/11/16 08:05:44;;;;;;;27.33;14.63;;;;;;;6.05;59.98;101955.97;7992593;28;20044;-66
2021/11/16 08:13:30;;;;;;;19.15;12.98;;;;;;;6.05;60.20;101954.22;7999029;28;20094;-66
2021/11/16 08:17:23;;;;;;;22.17;12.73;;;;;;;6.05;60.05;101956.81;7994457;28;20039;-66
2021/11/16 08:21:16;;;;;;;21.55;13.48;;;;;;;6.06;59.89;101960.25;7990298;28;20041;-66
2021/11/16 08:25:08;;;;;;;18.88;11.13;;;;;;;6.06;60.24;101960.25;7985303;28;20406;-63
2021/11/16 08:29:01;;;;;;;20.98;13.32;;;;;;;6.07;59.82;101961.97;7984591;28;20503;-65
2021/11/16 08:32:57;;;;;;;21.13;12.13;;;;;;;6.06;60.00;101968.94;7988770;28;20045;-66
2021/11/16 08:36:51;;;;;;;21.63;13.48;;;;;;;6.06;60.08;101966.34;7989008;28;20036;-65
2021/11/16 08:40:45;;;;;;;23.70;13.13;;;;;;;6.07;59.86;101964.59;7985972;28;20126;-66
2021/11/16 08:44:47;;;;;;;21.73;13.15;;;;;;;6.07;59.86;101959.38;7988359;28;20021;-65
2021/11/16 08:48:46;;;;;;;25.15;14.43;;;;;;;6.06;59.59;101960.25;7986623;28;20572;-65
2021/11/16 08:52:37;;;;;;;20.60;13.20;;;;;;;6.05;59.94;101943.78;7985324;28;20037;-68
2021/11/16 08:56:35;;;;;;;23.33;13.85;;;;;;;6.07;60.24;101951.53;7992280;28;20123;-65
2021/11/16 09:00:30;;;;;;;20.93;13.03;;;;;;;6.04;59.74;101942.06;7989162;28;20061;-68
2021/11/16 09:04:29;;;;;;;23.67;13.60;;;;;;;6.06;60.12;101949.81;7993815;28;20491;-68
2021/11/16 09:08:25;;;;;;;24.83;13.80;;;;;;;6.06;59.94;101942.00;7984389;28;20083;-67
2021/11/16 09:12:15;;;;;;;22.85;13.50;;;;;;;6.07;59.95;101934.13;7983438;28;20457;-68
2021/11/16 09:16:10;;;;;;;22.48;13.25;;;;;;;6.10;60.01;101935.78;7986371;28;20485;-66
2021/11/16 09:20:33;;;;;;;20.95;13.32;;;;;;;6.10;60.29;101934.03;7997259;28;20035;-67
2021/11/16 09:24:43;;;;;;;25.17;13.20;;;;;;;6.13;60.14;101935.72;7963656;28;20866;-69
2021/11/16 09:28:34;;;;;;;21.48;12.60;;;;;;;6.17;59.91;101931.25;7987041;28;20557;-68
2021/11/16 09:32:26;;;;;;;22.92;12.93;;;;;;;6.20;59.99;101932.00;7983014;28;20080;-65
2021/11/16 09:36:23;;;;;;;23.27;14.15;;;;;;;6.22;60.23;101926.75;7989687;28;20079;-67
2021/11/16 09:40:19;;;;;;;26.67;14.20;;;;;;;6.26;60.32;101933.59;8000896;28;20043;-68
2021/11/16 09:44:24;;;;;;;20.67;12.18;;;;;;;6.27;59.98;101928.28;7998841;28;20036;-67
2021/11/16 09:48:22;;;;;;;22.08;13.32;;;;;;;6.28;60.26;101923.94;7998665;28;20067;-65
2021/11/16 09:52:19;;;;;;;25.08;12.82;;;;;;;6.29;60.25;101923.91;7993282;28;20086;-68
2021/11/16 09:56:20;;;;;;;22.05;13.52;;;;;;;6.25;59.89;101908.38;7997888;28;20025;-64
2021/11/16 10:00:23;;;;;;;22.38;13.35;;;;;;;6.30;60.11;101911.72;7999443;28;20112;-65
2021/11/16 10:04:20;;;;;;;22.42;13.82;;;;;;;6.28;60.23;101913.50;7989973;28;20477;-68
2021/11/16 10:08:12;;;;;;;23.92;13.82;;;;;;;6.28;59.84;101916.09;7981789;28;20525;-64
2021/11/16 10:12:02;;;;;;;26.70;14.32;;;;;;;6.26;60.09;101908.34;7981892;28;20067;-67
2021/11/16 10:15:57;;;;;;;23.63;13.52;;;;;;;6.26;60.16;101904.88;7985194;28;20041;-68
2021/11/16 10:19:47;;;;;;;25.48;13.75;;;;;;;6.28;60.04;101898.69;7986634;28;20037;-67
2021/11/16 10:23:46;;;;;;;23.77;13.10;;;;;;;6.27;60.22;101883.94;7994159;28;20029;-67
2021/11/16 10:27:38;;;;;;;26.58;14.27;;;;;;;6.29;59.86;101887.38;7985133;28;20037;-66
2021/11/16 10:31:33;;;;;;;24.27;13.95;;;;;;;6.28;59.91;101885.66;7993119;28;20107;-66
2021/11/16 10:35:23;;;;;;;25.33;13.90;;;;;;;6.27;60.27;101877.84;7993598;28;20036;-66
2021/11/16 10:39:23;;;;;;;24.15;13.10;;;;;;;6.23;59.96;101864.06;7993891;28;20045;-66
2021/11/16 10:43:15;;;;;;;23.65;13.02;;;;;;;6.27;59.99;101865.66;7985812;28;20021;-66
2021/11/16 10:47:06;;;;;;;22.45;12.45;;;;;;;6.29;60.08;101866.50;7992939;28;20029;-67
2021/11/16 10:50:57;;;;;;;24.05;12.45;;;;;;;6.30;60.18;101865.59;7984179;28;20037;-67
2021/11/16 10:54:57;;;;;;;22.08;12.10;;;;;;;6.32;60.00;101865.53;7992023;28;20040;-66
2021/11/16 10:58:49;;;;;;;23.33;12.13;;;;;;;6.34;60.16;101864.59;7987402;28;20029;-67
2021/11/16 11:02:40;;;;;;;21.05;12.30;;;;;;;6.36;60.28;101862.75;7987095;28;20086;-69
2021/11/16 11:06:35;;;;;;;23.00;12.75;;;;;;;6.39;60.03;101861.81;7991552;28;20041;-65
2021/11/16 11:10:42;;;;;;;20.88;11.88;;;;;;;6.41;60.19;101853.03;7988421;28;20033;-64
2021/11/16 11:14:32;;;;;;;19.98;11.18;;;;;;;6.43;60.08;101848.59;7978917;28;20024;-66
2021/11/16 11:18:33;;;;;;;20.83;11.15;;;;;;;6.47;59.83;101852.00;7975932;28;20033;-66
2021/11/16 11:22:29;;;;;;;18.42;10.98;;;;;;;6.46;60.47;101835.47;7980147;28;20044;-66
2021/11/16 11:26:40;;;;;;;22.08;10.75;;;;;;;6.54;60.08;101837.81;7982493;28;20034;-67
2021/11/16 11:30:32;;;;;;;17.60;10.52;;;;;;;6.56;59.98;101833.38;7974177;28;20044;-65
2021/11/16 11:34:35;;;;;;;19.10;10.48;;;;;;;6.59;60.09;101825.47;7975801;28;20438;-67
2021/11/16 11:38:35;;;;;;;16.63;10.32;;;;;;;6.64;59.91;101827.88;7989115;28;20041;-66
2021/11/16 11:42:28;;;;;;;19.95;10.65;;;;;;;6.66;60.25;101823.47;7980525;28;20045;-66
2021/11/16 11:46:46;;;;;;;17.02;9.07;;;;;;;6.68;60.21;101829.53;7979366;28;20695;-67
2021/11/16 11:50:38;;;;;;;20.05;10.43;;;;;;;6.71;60.19;101829.41;7982807;28;20037;-66
2021/11/16 11:54:29;;;;;;;16.95;9.93;;;;;;;6.73;59.95;101825.84;7983024;28;20091;-66
2021/11/16 11:58:21;;;;;;;19.75;10.63;;;;;;;6.76;60.19;101822.31;7985916;28;20020;-66
2021/11/16 12:02:14;;;;;;;23.23;11.30;;;;;;;6.78;59.80;101810.03;7985907;28;20033;-66
2021/11/16 12:06:05;;;;;;;18.83;10.20;;;;;;;6.74;59.82;101801.44;7986390;28;20115;-66
2021/11/16 12:09:56;;;;;;;13.65;9.20;;;;;;;6.80;59.73;101809.06;7992092;28;20488;-66
2021/11/16 12:13:48;;;;;;;16.80;9.38;;;;;;;6.83;59.86;101813.34;7994650;28;20111;-66
2021/11/16 12:17:54;;;;;;;17.90;10.00;;;;;;;6.85;60.07;101806.28;7995220;28;20560;-66
2021/11/16 12:21:47;;;;;;;20.25;11.18;;;;;;;6.87;59.89;101804.47;7992616;28;20032;-66
2021/11/16 12:25:40;;;;;;;17.70;9.82;;;;;;;6.89;60.12;101794.81;7987004;28;20095;-66
2021/11/16 12:29:38;;;;;;;18.60;9.52;;;;;;;6.92;59.81;101798.19;7991614;28;20037;-67
2021/11/16 12:33:39;;;;;;;18.43;10.37;;;;;;;6.90;59.80;101794.78;7992227;28;20034;-67
2021/11/16 12:37:46;;;;;;;20.27;11.65;;;;;;;6.92;60.06;101792.13;7996026;28;20471;-67
2021/11/16 12:41:40;;;;;;;20.63;12.32;;;;;;;6.94;59.92;101785.06;7994409;28;20040;-67
2021/11/16 12:45:37;;;;;;;21.17;12.20;;;;;;;6.93;59.89;101784.22;7990714;28;20490;-67
2021/11/16 12:49:36;;;;;;;20.85;11.93;;;;;;;6.93;59.75;101773.75;7988038;28;20029;-66
2021/11/16 12:54:04;;;;;;;18.05;10.48;;;;;;;6.91;60.05;101777.34;7991064;28;20044;-67
2021/11/16 12:57:58;;;;;;;19.58;10.82;;;;;;;6.88;60.05;101778.31;7993785;28;20029;-67
2021/11/16 13:01:52;;;;;;;19.73;11.00;;;;;;;6.87;59.59;101774.00;7989256;28;20031;-67
2021/11/16 13:05:45;;;;;;;20.80;11.73;;;;;;;6.86;59.52;101782.72;7984033;28;20033;-66
2021/11/16 13:09:47;;;;;;;21.42;11.52;;;;;;;6.85;59.81;101781.03;7987534;28;20025;-67
2021/11/16 13:13:43;;;;;;;18.65;11.45;;;;;;;6.77;59.65;101767.38;7994685;28;20116;-66
2021/11/16 13:18:05;;;;;;;19.88;11.25;;;;;;;6.83;59.72;101771.53;7990406;28;20108;-67
2021/11/16 13:21:56;;;;;;;20.17;11.27;;;;;;;6.83;59.47;101766.31;7977363;28;20041;-66
2021/11/16 13:25:48;;;;;;;19.75;11.55;;;;;;;6.83;59.86;101761.97;7983608;28;20091;-67
2021/11/16 13:29:39;;;;;;;20.30;11.95;;;;;;;6.83;59.71;101767.19;7985812;28;20053;-67
2021/11/16 13:33:49;;;;;;;23.60;11.63;;;;;;;6.83;59.66;101761.97;7987640;28;20029;-66
2021/11/16 13:37:52;;;;;;;18.38;11.55;;;;;;;6.84;59.55;101750.56;7991609;28;20029;-67
2021/11/16 13:41:47;;;;;;;18.45;10.95;;;;;;;6.84;59.90;101741.91;7984914;28;20057;-66
2021/11/16 13:45:38;;;;;;;18.20;9.88;;;;;;;6.84;60.00;101741.91;7987177;28;20037;-66
2021/11/16 13:49:43;;;;;;;17.30;9.48;;;;;;;6.84;59.98;101747.97;7986590;28;20068;-67
2021/11/16 13:53:33;;;;;;;16.48;10.30;;;;;;;6.84;59.67;101747.97;7991544;28;20068;-67
2021/11/16 13:57:29;;;;;;;15.32;9.43;;;;;;;6.84;59.67;101736.69;7986142;28;20036;-67
2021/11/16 14:01:35;;;;;;;19.08;10.20;;;;;;;6.77;59.77;101724.75;7986806;28;20029;-66
2021/11/16 14:05:45;;;;;;;15.55;9.30;;;;;;;6.82;60.00;101725.44;7984043;28;20052;-67
2021/11/16 14:09:36;;;;;;;16.38;10.07;;;;;;;6.83;59.88;101735.00;7992969;28;20052;-67
2021/11/16 14:13:30;;;;;;;15.52;8.57;;;;;;;6.83;59.88;101728.00;7995705;28;20040;-67
2021/11/16 14:17:21;;;;;;;16.63;9.15;;;;;;;6.83;59.93;101725.41;7984826;28;20044;-67
2021/11/16 14:21:16;;;;;;;16.70;9.48;;;;;;;6.82;59.75;101718.47;7992631;28;20033;-66
2021/11/16 14:25:33;;;;;;;18.60;10.18;;;;;;;6.79;59.57;101723.81;7988130;28;20033;-67
2021/11/16 14:29:24;;;;;;;19.00;11.07;;;;;;;6.79;59.46;101722.94;7976942;28;20053;-67
2021/11/16 14:33:17;;;;;;;22.48;11.70;;;;;;;6.78;59.68;101722.09;7986865;28;20139;-67
2021/11/16 14:37:07;;;;;;;17.52;10.80;;;;;;;6.75;59.81;101714.38;7981950;28;20064;-67
2021/11/16 14:41:08;;;;;;;21.40;12.07;;;;;;;6.70;59.58;101702.34;7980896;28;20045;-67
2021/11/16 14:44:58;;;;;;;22.00;12.05;;;;;;;6.73;59.41;101712.72;7985088;28;20041;-66
2021/11/16 14:48:57;;;;;;;17.67;10.32;;;;;;;6.72;59.81;101716.25;7988904;28;20036;-66
2021/11/16 14:52:49;;;;;;;22.05;11.57;;;;;;;6.70;59.81;101718.88;7988150;28;20111;-66
2021/11/16 14:56:44;;;;;;;19.02;10.85;;;;;;;6.68;59.40;101712.03;7986147;28;20116;-66
2021/11/16 15:00:39;;;;;;;18.65;9.73;;;;;;;6.67;59.81;101724.22;7989570;28;20410;-67
2021/11/16 15:04:43;;;;;;;20.10;10.80;;;;;;;6.65;59.87;101726.03;7995712;28;20037;-68
2021/11/16 15:08:33;;;;;;;17.15;9.82;;;;;;;6.65;59.44;101720.81;7982328;28;20065;-67
2021/11/16 15:12:24;;;;;;;17.80;9.40;;;;;;;6.59;59.65;101711.41;7988044;28;20037;-67
2021/11/16 15:16:19;;;;;;;16.85;9.15;;;;;;;6.61;59.93;101723.56;7989431;28;20025;-67
2021/11/16 15:20:35;;;;;;;16.25;10.25;;;;;;;6.60;59.40;101714.88;7983785;28;20042;-67
2021/11/16 15:24:38;;;;;;;17.15;9.85;;;;;;;6.59;59.49;101710.59;7982141;28;20044;-67
2021/11/16 15:28:39;;;;;;;19.63;9.70;;;;;;;6.57;59.45;101726.31;7983103;28;20029;-67
2021/11/16 15:32:29;;;;;;;15.88;9.45;;;;;;;6.56;59.60;101718.50;7996202;28;20076;-67
2021/11/16 15:36:23;;;;;;;14.60;8.85;;;;;;;6.56;59.45;101713.28;7988982;28;20029;-67
2021/11/16 15:40:14;;;;;;;16.25;8.38;;;;;;;6.53;59.60;101714.25;8004331;28;20276;-67
2021/11/16 15:48:32;;;;;;;15.55;8.63;;;;;;;6.50;59.65;101717.00;7988944;28;20033;-66
2021/11/16 16:00:39;;;;;;;14.23;8.48;;;;;;;6.44;59.27;101721.56;7996902;28;20045;-66
2021/11/16 16:04:31;;;;;;;16.30;9.48;;;;;;;6.38;59.56;101714.81;7985653;28;20037;-66
2021/11/16 16:08:21;;;;;;;14.55;8.48;;;;;;;6.41;59.57;101714.69;7992871;28;20114;-67
2021/11/16 16:12:23;;;;;;;15.93;8.95;;;;;;;6.41;59.31;101706.03;8005455;28;20487;-67
2021/11/16 16:16:16;;;;;;;17.23;10.23;;;;;;;6.40;59.58;101704.31;7987886;28;20033;-66
2021/11/16 16:20:08;;;;;;;14.90;8.95;;;;;;;6.39;59.65;101700.84;7986193;28;20044;-67
2021/11/16 16:23:59;;;;;;;16.13;8.45;;;;;;;6.37;59.75;101705.28;7982687;28;20084;-66
2021/11/16 16:27:50;;;;;;;17.10;8.60;;;;;;;6.37;59.57;101705.28;7986036;28;20037;-67
2021/11/16 16:31:43;;;;;;;22.15;11.38;;;;;;;6.37;59.72;101712.25;7991519;28;20488;-67
2021/11/16 16:35:34;;;;;;;23.00;11.70;;;;;;;6.35;59.53;101712.28;7992093;28;20525;-67
2021/11/16 16:39:25;;;;;;;20.88;11.13;;;;;;;6.36;59.63;101714.00;7986654;28;20033;-67
2021/11/16 16:43:16;;;;;;;18.15;10.10;;;;;;;6.34;59.32;101713.22;7994164;28;20037;-66
2021/11/16 16:47:07;;;;;;;20.23;10.27;;;;;;;6.34;59.66;101714.97;7990154;28;20044;-67
2021/11/16 16:50:58;;;;;;;21.75;10.82;;;;;;;6.31;59.61;101704.63;7984609;28;20029;-67
2021/11/16 16:54:49;;;;;;;15.63;9.35;;;;;;;6.34;59.83;101714.97;7997493;28;20124;-67
2021/11/16 16:58:40;;;;;;;17.38;9.50;;;;;;;6.33;59.90;101715.88;7984590;28;20033;-67
2021/11/16 17:02:30;;;;;;;17.25;9.88;;;;;;;6.32;59.79;101722.84;7989513;28;20034;-66
2021/11/16 17:06:21;;;;;;;15.48;9.38;;;;;;;6.32;59.68;101716.78;7989129;28;20042;-67
2021/11/16 17:10:13;;;;;;;17.08;9.40;;;;;;;6.32;59.43;101722.00;7983776;28;20085;-67
2021/11/16 17:14:04;;;;;;;18.50;9.70;;;;;;;6.31;59.47;101728.97;7996134;28;20041;-67
2021/11/16 17:17:55;;;;;;;18.73;10.20;;;;;;;6.30;59.65;101719.47;7990929;28;20121;-67
2021/11/16 17:21:46;;;;;;;17.73;9.40;;;;;;;6.31;59.69;101722.88;7986449;28;20091;-67
2021/11/16 17:25:37;;;;;;;19.30;9.02;;;;;;;6.30;59.79;101726.44;7986584;28;20492;-67
2021/11/16 17:29:28;;;;;;;14.38;7.88;;;;;;;6.30;60.05;101721.22;7986623;28;20041;-67
2021/11/16 17:33:19;;;;;;;19.17;8.95;;;;;;;6.30;59.71;101724.69;7989655;28;20038;-67
2021/11/16 17:37:10;;;;;;;14.98;8.25;;;;;;;6.29;59.96;101722.09;7991151;28;20036;-67
2021/11/16 17:41:00;;;;;;;17.58;8.80;;;;;;;6.29;59.53;101714.28;7993868;28;20119;-67
2021/11/16 17:44:51;;;;;;;15.95;8.45;;;;;;;6.29;59.71;101716.88;7988497;28;20037;-67
2021/11/16 17:48:42;;;;;;;13.38;7.30;;;;;;;6.28;59.74;101709.97;7988521;28;20045;-67
2021/11/16 17:52:32;;;;;;;12.07;7.85;;;;;;;6.27;59.94;101716.94;7980270;28;20026;-72
2021/11/16 17:56:23;;;;;;;16.17;7.93;;;;;;;6.27;59.63;101711.72;7989402;28;20041;-69
2021/11/16 18:00:14;;;;;;;16.88;8.43;;;;;;;6.27;59.98;101716.94;7983959;28;20041;-68
2021/11/16 18:04:13;;;;;;;13.90;7.90;;;;;;;6.26;59.77;101717.00;7982456;28;20493;-68
2021/11/16 18:08:10;;;;;;;11.55;7.03;;;;;;;6.24;59.92;101711.81;7985999;28;20061;-67
2021/11/16 18:12:01;;;;;;;13.95;7.30;;;;;;;6.24;59.44;101713.59;7982106;28;20605;-68
2021/11/16 18:15:51;;;;;;;14.27;8.52;;;;;;;6.19;59.84;101716.34;7984081;28;20033;-68
2021/11/16 18:19:44;;;;;;;17.63;9.75;;;;;;;6.23;59.93;101720.56;7991360;28;20047;-69
2021/11/16 18:23:35;;;;;;;16.55;9.30;;;;;;;6.23;60.02;101723.16;7984407;28;20041;-70
2021/11/16 18:27:25;;;;;;;15.38;8.25;;;;;;;6.22;59.66;101729.31;7982474;28;20039;-71
2021/11/16 18:31:19;;;;;;;13.07;8.05;;;;;;;6.23;59.86;101719.69;7986014;28;20529;-70
2021/11/16 18:35:09;;;;;;;9.90;6.05;;;;;;;6.23;60.10;101731.00;7989282;28;20038;-70